Time;durP1;ratioP1;P1;durP2;ratioP2;P2;SDS_P1;SDS_P2;PMS_P1;PMS_P2;Temp;Humidity;BMP_temperature;BMP_pressure;BME280_temperature;BME280_humidity;BME280_pressure;Samples;Min_cycle;Max_cycle;Signal;HPM_P1;HPM_P2
2023/03/21 00:00:31;;;;;;;;;;;;;;;8.44;100;101655.1;;;;-73
2023/03/21 00:05:31;;;;;;;;;;;;;;;8.43;100;101650.3;;;;-74
2023/03/21 00:09:28;;;;;;;4.8;2.4;;;;;;;;;;;;;-73
2023/03/21 00:10:31;;;;;;;;;;;;;;;8.41;100;101649.5;;;;-73
2023/03/21 00:15:31;;;;;;;;;;;;;;;8.43;100;101644.9;;;;-73
2023/03/21 00:20:33;;;;;;;;;;;;;;;8.43;100;101644.5;;;;-72
2023/03/21 00:25:31;;;;;;;;;;;;;;;8.43;100;101636;;;;-74
2023/03/21 00:30:31;;;;;;;;;;;;;;;8.43;100;101629.6;;;;-72
2023/03/21 00:35:31;;;;;;;;;;;;;;;8.42;100;101631;;;;-72
2023/03/21 00:39:30;;;;;;;4.8;3.1;;;;;;;;;;;;;-74
2023/03/21 00:40:31;;;;;;;;;;;;;;;8.41;100;101629.6;;;;-74
2023/03/21 00:45:34;;;;;;;;;;;;;;;8.42;100;101624.8;;;;-73
2023/03/21 00:50:31;;;;;;;;;;;;;;;8.43;100;101619.4;;;;-73
2023/03/21 00:55:33;;;;;;;;;;;;;;;8.42;100;101612.7;;;;-73
2023/03/21 01:00:31;;;;;;;;;;;;;;;8.41;100;101606.8;;;;-74
2023/03/21 01:09:31;;;;;;;9.4;4.8;;;;;;;;;;;;;-73
2023/03/21 01:10:31;;;;;;;;;;;;;;;8.44;100;101590.7;;;;-73
2023/03/21 01:15:31;;;;;;;;;;;;;;;8.43;100;101581.9;;;;-74
2023/03/21 01:20:34;;;;;;;;;;;;;;;8.42;100;101580;;;;-75
2023/03/21 01:25:32;;;;;;;;;;;;;;;8.43;100;101576.3;;;;-74
2023/03/21 01:30:32;;;;;;;;;;;;;;;8.43;100;101574.5;;;;-74
2023/03/21 01:35:31;;;;;;;;;;;;;;;8.44;100;101568.7;;;;-74
2023/03/21 01:39:33;;;;;;;10.2;5.8;;;;;;;;;;;;;-74
2023/03/21 01:40:33;;;;;;;;;;;;;;;8.43;100;101563.5;;;;-74
2023/03/21 01:45:45;;;;;;;;;;;;;;;8.44;100;101552.9;;;;-74
2023/03/21 01:50:33;;;;;;;;;;;;;;;8.44;100;101553.9;;;;-74
2023/03/21 01:55:31;;;;;;;;;;;;;;;8.44;100;101552.1;;;;-73
2023/03/21 02:00:32;;;;;;;;;;;;;;;8.45;100;101548.2;;;;-74
2023/03/21 02:05:35;;;;;;;;;;;;;;;8.44;100;101547.2;;;;-73
2023/03/21 02:09:35;;;;;;;10.3;5.9;;;;;;;;;;;;;-73
2023/03/21 02:10:34;;;;;;;;;;;;;;;8.45;100;101541;;;;-74
2023/03/21 02:15:31;;;;;;;;;;;;;;;8.46;100;101536.7;;;;-74
2023/03/21 02:20:49;;;;;;;;;;;;;;;8.45;100;101530.5;;;;-73
2023/03/21 02:25:41;;;;;;;;;;;;;;;8.47;100;101525.4;;;;-73
2023/03/21 02:30:43;;;;;;;;;;;;;;;8.45;100;101521.7;;;;-74
2023/03/21 02:35:48;;;;;;;;;;;;;;;8.46;100;101515.4;;;;-73
2023/03/21 02:39:37;;;;;;;9.6;5.8;;;;;;;;;;;;;-76
2023/03/21 02:40:35;;;;;;;;;;;;;;;8.47;100;101511.9;;;;-74
2023/03/21 02:45:36;;;;;;;;;;;;;;;8.47;100;101505.6;;;;-74
2023/03/21 02:50:36;;;;;;;;;;;;;;;8.47;100;101496.6;;;;-73
2023/03/21 02:55:37;;;;;;;;;;;;;;;8.48;100;101495.7;;;;-73
2023/03/21 03:00:32;;;;;;;;;;;;;;;8.46;100;101489.7;;;;-74
2023/03/21 03:05:34;;;;;;;;;;;;;;;8.48;100;101482.2;;;;-75
2023/03/21 03:09:41;;;;;;;10.2;5.7;;;;;;;;;;;;;-74
2023/03/21 03:10:39;;;;;;;;;;;;;;;8.47;100;101481.1;;;;-74
2023/03/21 03:15:37;;;;;;;;;;;;;;;8.48;100;101483.1;;;;-74
2023/03/21 03:20:35;;;;;;;;;;;;;;;8.48;100;101478.4;;;;-75
2023/03/21 03:25:35;;;;;;;;;;;;;;;8.48;100;101477;;;;-74
2023/03/21 03:30:32;;;;;;;;;;;;;;;8.47;100;101472.4;;;;-75
2023/03/21 03:35:32;;;;;;;;;;;;;;;8.49;100;101471.4;;;;-74
2023/03/21 03:39:38;;;;;;;14.4;6.8;;;;;;;;;;;;;-74
2023/03/21 03:40:38;;;;;;;;;;;;;;;8.48;100;101469.4;;;;-73
2023/03/21 03:45:34;;;;;;;;;;;;;;;8.49;100;101467.8;;;;-75
2023/03/21 03:50:34;;;;;;;;;;;;;;;8.49;100;101464.3;;;;-73
2023/03/21 03:55:33;;;;;;;;;;;;;;;8.49;100;101459.5;;;;-76
2023/03/21 04:00:34;;;;;;;;;;;;;;;8.51;100;101466.4;;;;-74
2023/03/21 04:05:31;;;;;;;;;;;;;;;8.48;100;101453;;;;-74
2023/03/21 04:09:36;;;;;;;13.6;6.9;;;;;;;;;;;;;-74
2023/03/21 04:10:31;;;;;;;;;;;;;;;8.5;100;101451.4;;;;-74
2023/03/21 04:15:31;;;;;;;;;;;;;;;8.49;100;101448.7;;;;-74
2023/03/21 04:20:31;;;;;;;;;;;;;;;8.49;100;101446;;;;-75
2023/03/21 04:25:31;;;;;;;;;;;;;;;8.47;100;101443;;;;-74
2023/03/21 04:30:37;;;;;;;;;;;;;;;8.47;100;101440;;;;-74
2023/03/21 04:35:33;;;;;;;;;;;;;;;8.48;100;101437.8;;;;-73
2023/03/21 04:39:38;;;;;;;16.6;8.6;;;;;;;;;;;;;-73
2023/03/21 04:40:31;;;;;;;;;;;;;;;8.49;100;101438.2;;;;-75
2023/03/21 04:45:31;;;;;;;;;;;;;;;8.48;100;101442.7;;;;-74
2023/03/21 04:50:31;;;;;;;;;;;;;;;8.48;100;101437.1;;;;-75
2023/03/21 04:55:32;;;;;;;;;;;;;;;8.47;100;101429.4;;;;-74
2023/03/21 05:00:36;;;;;;;;;;;;;;;8.47;100;101428.9;;;;-75
2023/03/21 05:05:31;;;;;;;;;;;;;;;8.46;100;101432.3;;;;-75
2023/03/21 05:09:40;;;;;;;16.4;8.2;;;;;;;;;;;;;-74
2023/03/21 05:10:31;;;;;;;;;;;;;;;8.44;100;101435.6;;;;-74
2023/03/21 05:15:31;;;;;;;;;;;;;;;8.44;100;101430;;;;-75
2023/03/21 05:20:31;;;;;;;;;;;;;;;8.45;100;101431.2;;;;-75
2023/03/21 05:25:33;;;;;;;;;;;;;;;8.43;100;101430.3;;;;-73
2023/03/21 05:30:31;;;;;;;;;;;;;;;8.43;100;101428.9;;;;-74
2023/03/21 05:35:31;;;;;;;;;;;;;;;8.4;100;101430.3;;;;-75
2023/03/21 05:39:39;;;;;;;14.3;7.5;;;;;;;;;;;;;-76
2023/03/21 05:40:31;;;;;;;;;;;;;;;8.42;100;101430.9;;;;-75
2023/03/21 05:45:31;;;;;;;;;;;;;;;8.42;100;101429.8;;;;-74
2023/03/21 05:50:31;;;;;;;;;;;;;;;8.4;100;101427.6;;;;-74
2023/03/21 05:55:31;;;;;;;;;;;;;;;8.39;100;101422.8;;;;-74
2023/03/21 06:00:31;;;;;;;;;;;;;;;8.38;100;101423.4;;;;-74
2023/03/21 06:05:31;;;;;;;;;;;;;;;8.42;100;101429.1;;;;-74
2023/03/21 06:09:40;;;;;;;21.5;10;;;;;;;;;;;;;-75
2023/03/21 06:10:31;;;;;;;;;;;;;;;8.41;100;101427.3;;;;-74
2023/03/21 06:15:31;;;;;;;;;;;;;;;8.39;100;101428;;;;-75
2023/03/21 06:20:31;;;;;;;;;;;;;;;8.39;100;101426.7;;;;-74
2023/03/21 06:25:31;;;;;;;;;;;;;;;8.41;100;101426.9;;;;-74
2023/03/21 06:30:31;;;;;;;;;;;;;;;8.41;100;101434.3;;;;-75
2023/03/21 06:35:31;;;;;;;;;;;;;;;8.42;100;101433.9;;;;-74
2023/03/21 06:39:42;;;;;;;20.2;9.9;;;;;;;;;;;;;-74
2023/03/21 06:40:31;;;;;;;;;;;;;;;8.41;100;101436.3;;;;-74
2023/03/21 06:45:31;;;;;;;;;;;;;;;8.42;100;101431.6;;;;-75
2023/03/21 06:50:31;;;;;;;;;;;;;;;8.42;100;101425.6;;;;-74
2023/03/21 06:55:31;;;;;;;;;;;;;;;8.44;100;101424.2;;;;-74
2023/03/21 07:00:31;;;;;;;;;;;;;;;8.43;100;101416.5;;;;-76
2023/03/21 07:05:31;;;;;;;;;;;;;;;8.43;100;101413.7;;;;-75
2023/03/21 07:09:43;;;;;;;18.6;9.7;;;;;;;;;;;;;-74
2023/03/21 07:10:31;;;;;;;;;;;;;;;8.43;100;101419.4;;;;-73
2023/03/21 07:15:32;;;;;;;;;;;;;;;8.44;100;101413.8;;;;-73
2023/03/21 07:20:31;;;;;;;;;;;;;;;8.45;100;101412.4;;;;-74
2023/03/21 07:25:31;;;;;;;;;;;;;;;8.46;100;101411.9;;;;-74
2023/03/21 07:30:31;;;;;;;;;;;;;;;8.47;100;101409.8;;;;-75
2023/03/21 07:35:31;;;;;;;;;;;;;;;8.49;100;101405.9;;;;-75
2023/03/21 07:39:43;;;;;;;23.8;9.8;;;;;;;;;;;;;-74
2023/03/21 07:40:31;;;;;;;;;;;;;;;8.5;100;101406.6;;;;-74
2023/03/21 07:45:31;;;;;;;;;;;;;;;8.51;100;101402.8;;;;-74
2023/03/21 07:50:31;;;;;;;;;;;;;;;8.51;100;101394.4;;;;-73
2023/03/21 07:55:33;;;;;;;;;;;;;;;8.52;100;101391.5;;;;-74
2023/03/21 08:00:31;;;;;;;;;;;;;;;8.53;100;101386.2;;;;-74
2023/03/21 08:05:32;;;;;;;;;;;;;;;8.53;100;101387.5;;;;-74
2023/03/21 08:09:45;;;;;;;23.1;8.4;;;;;;;;;;;;;-74
2023/03/21 08:10:31;;;;;;;;;;;;;;;8.55;100;101375;;;;-75
2023/03/21 08:15:31;;;;;;;;;;;;;;;8.56;100;101368.8;;;;-74
2023/03/21 08:20:31;;;;;;;;;;;;;;;8.58;100;101369.2;;;;-75
2023/03/21 08:25:32;;;;;;;;;;;;;;;8.58;100;101354.3;;;;-75
2023/03/21 08:30:31;;;;;;;;;;;;;;;8.58;100;101345.5;;;;-75
2023/03/21 08:35:31;;;;;;;;;;;;;;;8.61;100;101348.5;;;;-75
2023/03/21 08:39:45;;;;;;;17.4;7.4;;;;;;;;;;;;;-75
2023/03/21 08:40:31;;;;;;;;;;;;;;;8.65;100;101341;;;;-74
2023/03/21 08:45:31;;;;;;;;;;;;;;;8.67;100;101338.8;;;;-74
2023/03/21 08:50:31;;;;;;;;;;;;;;;8.7;100;101335.5;;;;-74
2023/03/21 08:55:31;;;;;;;;;;;;;;;8.78;100;101331;;;;-74
2023/03/21 09:00:31;;;;;;;;;;;;;;;8.87;100;101326.4;;;;-74
2023/03/21 09:05:31;;;;;;;;;;;;;;;8.98;100;101333.3;;;;-74
2023/03/21 09:09:46;;;;;;;16.5;6.8;;;;;;;;;;;;;-74
2023/03/21 09:10:34;;;;;;;;;;;;;;;9.06;100;101334.4;;;;-74
2023/03/21 09:15:32;;;;;;;;;;;;;;;9.1;100;101334.9;;;;-74
2023/03/21 09:20:37;;;;;;;;;;;;;;;9.16;100;101327.4;;;;-74
2023/03/21 09:25:32;;;;;;;;;;;;;;;9.22;100;101325.4;;;;-74
2023/03/21 09:30:31;;;;;;;;;;;;;;;9.33;100;101312.1;;;;-73
2023/03/21 09:35:31;;;;;;;;;;;;;;;9.53;100;101309.5;;;;-74
2023/03/21 09:39:50;;;;;;;15.2;6.5;;;;;;;;;;;;;-74
2023/03/21 09:40:38;;;;;;;;;;;;;;;9.64;100;101306.8;;;;-75
2023/03/21 09:45:36;;;;;;;;;;;;;;;9.79;100;101310.1;;;;-74
2023/03/21 09:50:33;;;;;;;;;;;;;;;9.87;100;101298.2;;;;-74
2023/03/21 09:55:33;;;;;;;;;;;;;;;9.93;100;101292.6;;;;-74
2023/03/21 10:00:35;;;;;;;;;;;;;;;9.98;100;101285.7;;;;-74
2023/03/21 10:05:33;;;;;;;;;;;;;;;10.06;100;101288.1;;;;-74
2023/03/21 10:09:50;;;;;;;16.9;6.7;;;;;;;;;;;;;-74
2023/03/21 10:10:32;;;;;;;;;;;;;;;10.1;100;101290.7;;;;-74
2023/03/21 10:15:31;;;;;;;;;;;;;;;10.15;100;101279.8;;;;-73
2023/03/21 10:20:34;;;;;;;;;;;;;;;10.17;100;101287.1;;;;-74
2023/03/21 10:25:33;;;;;;;;;;;;;;;10.25;100;101283.3;;;;-73
2023/03/21 10:30:41;;;;;;;;;;;;;;;10.32;100;101288.5;;;;-74
2023/03/21 10:35:32;;;;;;;;;;;;;;;10.39;100;101282;;;;-74
2023/03/21 10:39:52;;;;;;;19.2;7.4;;;;;;;;;;;;;-74
2023/03/21 10:40:31;;;;;;;;;;;;;;;10.54;100;101285.1;;;;-74
2023/03/21 10:45:31;;;;;;;;;;;;;;;10.57;100;101291.3;;;;-72
2023/03/21 10:50:32;;;;;;;;;;;;;;;10.59;100;101294;;;;-73
2023/03/21 10:55:32;;;;;;;;;;;;;;;10.59;100;101279.8;;;;-74
2023/03/21 11:00:33;;;;;;;;;;;;;;;10.67;100;101286.8;;;;-74
2023/03/21 11:05:37;;;;;;;;;;;;;;;10.73;100;101283.1;;;;-73
2023/03/21 11:09:53;;;;;;;18.6;8.7;;;;;;;;;;;;;-74
2023/03/21 11:10:35;;;;;;;;;;;;;;;10.8;100;101272.4;;;;-73
2023/03/21 11:15:33;;;;;;;;;;;;;;;10.87;100;101272;;;;-74
2023/03/21 11:20:34;;;;;;;;;;;;;;;10.91;100;101266.2;;;;-74
2023/03/21 11:25:35;;;;;;;;;;;;;;;10.83;100;101265.5;;;;-74
2023/03/21 11:30:31;;;;;;;;;;;;;;;10.77;100;101247.8;;;;-73
2023/03/21 11:35:35;;;;;;;;;;;;;;;10.72;100;101248.3;;;;-75
2023/03/21 11:39:57;;;;;;;19.2;8.6;;;;;;;;;;;;;-72
2023/03/21 11:40:32;;;;;;;;;;;;;;;10.68;100;101246.3;;;;-75
2023/03/21 11:45:34;;;;;;;;;;;;;;;10.67;100;101250;;;;-72
2023/03/21 11:50:36;;;;;;;;;;;;;;;10.74;100;101250.1;;;;-73
2023/03/21 11:55:45;;;;;;;;;;;;;;;10.92;100;101238;;;;-73
2023/03/21 12:00:35;;;;;;;;;;;;;;;11.15;100;101244.9;;;;-74
2023/03/21 12:05:34;;;;;;;;;;;;;;;11.31;100;101249.2;;;;-73
2023/03/21 12:09:58;;;;;;;17.3;7.9;;;;;;;;;;;;;-73
2023/03/21 12:10:39;;;;;;;;;;;;;;;11.37;100;101234.6;;;;-74
2023/03/21 12:15:34;;;;;;;;;;;;;;;11.45;99.91699;101229.2;;;;-73
2023/03/21 12:20:40;;;;;;;;;;;;;;;11.5;99.29883;101228.5;;;;-74
2023/03/21 12:25:34;;;;;;;;;;;;;;;11.6;98.8584;101219.7;;;;-73
2023/03/21 12:30:43;;;;;;;;;;;;;;;11.74;98.56055;101207.9;;;;-74
2023/03/21 12:35:38;;;;;;;;;;;;;;;11.81;97.81543;101199.5;;;;-74
2023/03/21 12:39:58;;;;;;;19.1;8.1;;;;;;;;;;;;;-73
2023/03/21 12:40:40;;;;;;;;;;;;;;;11.98;98.40137;101196.6;;;;-72
2023/03/21 12:45:33;;;;;;;;;;;;;;;12.31;98.34375;101180.1;;;;-73
2023/03/21 12:50:36;;;;;;;;;;;;;;;12.6;95.13477;101180.8;;;;-73
2023/03/21 12:55:34;;;;;;;;;;;;;;;12.82;95.76855;101178.6;;;;-73
2023/03/21 13:00:37;;;;;;;;;;;;;;;12.96;95.23633;101174.3;;;;-73
2023/03/21 13:05:33;;;;;;;;;;;;;;;12.98;94.16309;101171.1;;;;-71
2023/03/21 13:10:00;;;;;;;12.8;6.3;;;;;;;;;;;;;-73
2023/03/21 13:10:31;;;;;;;;;;;;;;;12.86;93.03223;101161.4;;;;-73
2023/03/21 13:15:46;;;;;;;;;;;;;;;12.83;92.72754;101161.5;;;;-73
2023/03/21 13:20:38;;;;;;;;;;;;;;;12.77;93.10156;101146.2;;;;-74
2023/03/21 13:25:33;;;;;;;;;;;;;;;12.78;92.74707;101143.3;;;;-73
2023/03/21 13:30:32;;;;;;;;;;;;;;;12.8;92.58594;101139;;;;-73
2023/03/21 13:35:37;;;;;;;;;;;;;;;12.83;92.98145;101139.3;;;;-73
2023/03/21 13:40:08;;;;;;;11.3;5.3;;;;;;;;;;;;;-73
2023/03/21 13:40:37;;;;;;;;;;;;;;;12.85;92.34082;101141.7;;;;-73
2023/03/21 13:45:36;;;;;;;;;;;;;;;12.8;92.11035;101152.7;;;;-73
2023/03/21 13:50:32;;;;;;;;;;;;;;;12.69;92.38574;101141.4;;;;-72
2023/03/21 13:55:35;;;;;;;;;;;;;;;12.62;92.41504;101138.2;;;;-73
2023/03/21 14:00:33;;;;;;;;;;;;;;;12.55;92.58789;101132;;;;-73
2023/03/21 14:05:32;;;;;;;;;;;;;;;12.47;92.61719;101122.7;;;;-73
2023/03/21 14:10:02;;;;;;;13.2;5.2;;;;;;;;;;;;;-73
2023/03/21 14:10:34;;;;;;;;;;;;;;;12.42;92.88477;101121.7;;;;-72
2023/03/21 14:15:33;;;;;;;;;;;;;;;12.38;93.71582;101121.8;;;;-73
2023/03/21 14:20:35;;;;;;;;;;;;;;;12.29;93.39746;101113.3;;;;-73
2023/03/21 14:25:35;;;;;;;;;;;;;;;12.23;93.46191;101121.9;;;;-72
2023/03/21 14:30:33;;;;;;;;;;;;;;;12.08;93.96191;101126.6;;;;-73
2023/03/21 14:35:34;;;;;;;;;;;;;;;11.99;95.25781;101119;;;;-74
2023/03/21 14:40:09;;;;;;;11.4;6.4;;;;;;;;;;;;;-74
2023/03/21 14:40:32;;;;;;;;;;;;;;;11.96;95.19434;101122.8;;;;-74
2023/03/21 14:45:32;;;;;;;;;;;;;;;11.92;96.38184;101125;;;;-73
2023/03/21 14:50:34;;;;;;;;;;;;;;;11.86;96.39844;101127.1;;;;-73
2023/03/21 14:55:31;;;;;;;;;;;;;;;11.79;96.56348;101119.2;;;;-73
2023/03/21 15:00:34;;;;;;;;;;;;;;;11.73;96.79004;101116.6;;;;-73
2023/03/21 15:05:35;;;;;;;;;;;;;;;11.6;97.18164;101107.3;;;;-74
2023/03/21 15:10:06;;;;;;;13;7;;;;;;;;;;;;;-72
2023/03/21 15:10:32;;;;;;;;;;;;;;;11.6;97.40234;101105.6;;;;-73
2023/03/21 15:15:32;;;;;;;;;;;;;;;11.54;97.87402;101110.4;;;;-74
2023/03/21 15:20:33;;;;;;;;;;;;;;;11.38;98.42383;101103.9;;;;-73
2023/03/21 15:25:33;;;;;;;;;;;;;;;11.28;99.29395;101116.2;;;;-74
2023/03/21 15:30:32;;;;;;;;;;;;;;;11.16;99.8291;101115.2;;;;-74
2023/03/21 15:35:34;;;;;;;;;;;;;;;11.12;100;101101;;;;-73
2023/03/21 15:40:19;;;;;;;9.3;3.8;;;;;;;;;;;;;-73
2023/03/21 15:40:32;;;;;;;;;;;;;;;11.12;100;101113.9;;;;-74
2023/03/21 15:45:31;;;;;;;;;;;;;;;11.12;100;101113.3;;;;-74
2023/03/21 15:50:36;;;;;;;;;;;;;;;11.06;100;101127.2;;;;-73
2023/03/21 15:55:38;;;;;;;;;;;;;;;11.02;100;101136.2;;;;-74
2023/03/21 16:00:37;;;;;;;;;;;;;;;10.97;100;101119.8;;;;-74
2023/03/21 16:05:32;;;;;;;;;;;;;;;10.93;99.21387;101122.7;;;;-75
2023/03/21 16:10:08;;;;;;;7.6;2.2;;;;;;;;;;;;;-73
2023/03/21 16:10:35;;;;;;;;;;;;;;;10.91;98.75781;101117.8;;;;-75
2023/03/21 16:15:31;;;;;;;;;;;;;;;10.89;98.68848;101109.2;;;;-77
2023/03/21 16:20:32;;;;;;;;;;;;;;;10.92;98.4541;101102.5;;;;-73
2023/03/21 16:25:32;;;;;;;;;;;;;;;10.91;98.35059;101091.8;;;;-74
2023/03/21 16:30:31;;;;;;;;;;;;;;;10.9;98.20801;101088.5;;;;-73
2023/03/21 16:35:31;;;;;;;;;;;;;;;10.87;98.40625;101081.8;;;;-73
2023/03/21 16:40:13;;;;;;;4.3;2.2;;;;;;;;;;;;;-73
2023/03/21 16:40:33;;;;;;;;;;;;;;;10.84;98.14941;101091.8;;;;-74
2023/03/21 16:45:31;;;;;;;;;;;;;;;10.83;98.2666;101076.6;;;;-73
2023/03/21 16:50:33;;;;;;;;;;;;;;;10.84;97.96191;101069.3;;;;-74
2023/03/21 16:55:32;;;;;;;;;;;;;;;10.86;97.71289;101071.8;;;;-73
2023/03/21 17:00:31;;;;;;;;;;;;;;;10.84;97.03711;101063.4;;;;-74
2023/03/21 17:05:34;;;;;;;;;;;;;;;10.79;96.95898;101073.9;;;;-73
2023/03/21 17:10:15;;;;;;;5.8;1.6;;;;;;;;;;;;;-74
2023/03/21 17:10:32;;;;;;;;;;;;;;;10.71;96.59961;101080.1;;;;-74
2023/03/21 17:15:44;;;;;;;;;;;;;;;10.66;96.66406;101068.6;;;;-73
2023/03/21 17:20:36;;;;;;;;;;;;;;;10.62;96.23828;101070.7;;;;-73
2023/03/21 17:25:32;;;;;;;;;;;;;;;10.59;96.14355;101077.2;;;;-73
2023/03/21 17:30:32;;;;;;;;;;;;;;;10.58;96.16406;101070.2;;;;-73
2023/03/21 17:35:31;;;;;;;;;;;;;;;10.55;96.00391;101080.6;;;;-73
2023/03/21 17:40:14;;;;;;;5.3;1.1;;;;;;;;;;;;;-73
2023/03/21 17:40:33;;;;;;;;;;;;;;;10.48;96.03125;101089.6;;;;-73
2023/03/21 17:45:31;;;;;;;;;;;;;;;10.44;96.15527;101074.5;;;;-73
2023/03/21 17:50:36;;;;;;;;;;;;;;;10.39;96.16797;101078.6;;;;-73
2023/03/21 17:55:31;;;;;;;;;;;;;;;10.31;96.18066;101068.3;;;;-74
2023/03/21 18:00:32;;;;;;;;;;;;;;;10.2;95.93848;101062.6;;;;-73
2023/03/21 18:05:32;;;;;;;;;;;;;;;10.11;95.8623;101050.9;;;;-72
2023/03/21 18:10:15;;;;;;;4.5;0.8;;;;;;;;;;;;;-73
2023/03/21 18:10:33;;;;;;;;;;;;;;;10.01;95.77441;101045.7;;;;-74
2023/03/21 18:15:34;;;;;;;;;;;;;;;9.92;95.40234;101042;;;;-74
2023/03/21 18:20:32;;;;;;;;;;;;;;;9.85;95.61914;101046.7;;;;-74
2023/03/21 18:25:31;;;;;;;;;;;;;;;9.76;95.97266;101041.4;;;;-74
2023/03/21 18:30:32;;;;;;;;;;;;;;;9.7;96.15723;101044.2;;;;-74
2023/03/21 18:35:31;;;;;;;;;;;;;;;9.64;96.0127;101037.7;;;;-74
2023/03/21 18:40:20;;;;;;;5;0.9;;;;;;;;;;;;;-73
2023/03/21 18:40:31;;;;;;;;;;;;;;;9.59;96.26465;101036.6;;;;-74
2023/03/21 18:45:34;;;;;;;;;;;;;;;9.54;96.39746;101034.9;;;;-73
2023/03/21 18:50:31;;;;;;;;;;;;;;;9.48;96.72559;101037.5;;;;-73
2023/03/21 18:55:32;;;;;;;;;;;;;;;9.46;96.58789;101042.5;;;;-74
2023/03/21 19:00:31;;;;;;;;;;;;;;;9.44;96.81445;101044.9;;;;-75
2023/03/21 19:05:31;;;;;;;;;;;;;;;9.42;96.92969;101039.3;;;;-73
2023/03/21 19:10:16;;;;;;;7.1;1.3;;;;;;;;;;;;;-74
2023/03/21 19:10:31;;;;;;;;;;;;;;;9.4;96.99316;101041.2;;;;-73
2023/03/21 19:15:31;;;;;;;;;;;;;;;9.37;97.29492;101043.6;;;;-73
2023/03/21 19:20:31;;;;;;;;;;;;;;;9.35;97.24512;101044.9;;;;-74
2023/03/21 19:25:31;;;;;;;;;;;;;;;9.31;97.51074;101036.5;;;;-73
2023/03/21 19:30:31;;;;;;;;;;;;;;;9.33;97.69043;101036.5;;;;-74
2023/03/21 19:35:31;;;;;;;;;;;;;;;9.35;97.87012;101040.7;;;;-74
2023/03/21 19:40:18;;;;;;;9.2;1.1;;;;;;;;;;;;;-74
2023/03/21 19:40:32;;;;;;;;;;;;;;;9.35;97.89063;101033;;;;-74
2023/03/21 19:45:31;;;;;;;;;;;;;;;9.33;97.97656;101035.1;;;;-73
2023/03/21 19:50:32;;;;;;;;;;;;;;;9.27;98.00586;101035.7;;;;-73
2023/03/21 19:55:31;;;;;;;;;;;;;;;9.22;98.14941;101032.8;;;;-75
2023/03/21 20:00:31;;;;;;;;;;;;;;;9.18;98.24902;101029.2;;;;-73
2023/03/21 20:05:31;;;;;;;;;;;;;;;9.15;98.29688;101025.6;;;;-73
2023/03/21 20:10:18;;;;;;;7.1;1.4;;;;;;;;;;;;;-73
2023/03/21 20:10:34;;;;;;;;;;;;;;;9.12;98.51953;101025.8;;;;-75
2023/03/21 20:15:32;;;;;;;;;;;;;;;9.09;98.46973;101023.4;;;;-73
2023/03/21 20:20:31;;;;;;;;;;;;;;;9.08;98.75488;101018.4;;;;-74
2023/03/21 20:25:31;;;;;;;;;;;;;;;9.04;98.81055;101023.2;;;;-74
2023/03/21 20:30:31;;;;;;;;;;;;;;;8.99;98.89648;101018.9;;;;-73
2023/03/21 20:35:34;;;;;;;;;;;;;;;8.93;99.19141;101016.4;;;;-73
2023/03/21 20:40:20;;;;;;;9.4;1.4;;;;;;;;;;;;;-73
2023/03/21 20:40:31;;;;;;;;;;;;;;;8.88;99.55371;101008.2;;;;-72
2023/03/21 20:45:34;;;;;;;;;;;;;;;8.85;99.64551;101013.4;;;;-73
2023/03/21 20:50:34;;;;;;;;;;;;;;;8.81;99.71191;101007.3;;;;-73
2023/03/21 20:55:32;;;;;;;;;;;;;;;8.77;99.81348;101007.5;;;;-73
2023/03/21 21:00:33;;;;;;;;;;;;;;;8.75;100;101002.5;;;;-75
2023/03/21 21:05:38;;;;;;;;;;;;;;;8.74;100;101003.7;;;;-74
2023/03/21 21:10:21;;;;;;;7.8;1.6;;;;;;;;;;;;;-74
2023/03/21 21:10:35;;;;;;;;;;;;;;;8.7;100;101000.3;;;;-74
2023/03/21 21:15:32;;;;;;;;;;;;;;;8.66;100;100996.3;;;;-73
2023/03/21 21:20:33;;;;;;;;;;;;;;;8.64;100;100985.3;;;;-74
2023/03/21 21:25:34;;;;;;;;;;;;;;;8.62;100;100984;;;;-73
2023/03/21 21:30:33;;;;;;;;;;;;;;;8.59;100;100982.9;;;;-74
2023/03/21 21:35:32;;;;;;;;;;;;;;;8.55;100;100975.4;;;;-74
2023/03/21 21:40:23;;;;;;;8.1;2.3;;;;;;;;;;;;;-73
2023/03/21 21:40:36;;;;;;;;;;;;;;;8.53;100;100972.2;;;;-72
2023/03/21 21:45:31;;;;;;;;;;;;;;;8.54;100;100964.2;;;;-73
2023/03/21 21:50:31;;;;;;;;;;;;;;;8.58;100;100962.7;;;;-73
2023/03/21 21:55:31;;;;;;;;;;;;;;;8.58;100;100955.6;;;;-73
2023/03/21 22:00:35;;;;;;;;;;;;;;;8.58;100;100951.2;;;;-73
2023/03/21 22:05:32;;;;;;;;;;;;;;;8.55;100;100955.8;;;;-73
2023/03/21 22:10:23;;;;;;;11.5;2.4;;;;;;;;;;;;;-73
2023/03/21 22:10:34;;;;;;;;;;;;;;;8.53;100;100950.7;;;;-73
2023/03/21 22:15:34;;;;;;;;;;;;;;;8.53;100;100952.8;;;;-73
2023/03/21 22:20:32;;;;;;;;;;;;;;;8.52;100;100951.4;;;;-72
2023/03/21 22:25:31;;;;;;;;;;;;;;;8.49;100;100951.9;;;;-73
2023/03/21 22:30:31;;;;;;;;;;;;;;;8.46;100;100944.3;;;;-73
2023/03/21 22:35:31;;;;;;;;;;;;;;;8.44;100;100943.7;;;;-73
2023/03/21 22:40:24;;;;;;;5.6;1.5;;;;;;;;;;;;;-74
2023/03/21 22:40:33;;;;;;;;;;;;;;;8.37;100;100942.5;;;;-75
2023/03/21 22:45:31;;;;;;;;;;;;;;;8.36;100;100941.9;;;;-73
2023/03/21 22:50:31;;;;;;;;;;;;;;;8.33;100;100931.3;;;;-73
2023/03/21 22:55:32;;;;;;;;;;;;;;;8.32;100;100928.6;;;;-73
2023/03/21 23:00:32;;;;;;;;;;;;;;;8.32;100;100929.1;;;;-73
2023/03/21 23:05:31;;;;;;;;;;;;;;;8.33;100;100926.1;;;;-74
2023/03/21 23:10:28;;;;;;;9.3;1.4;;;;;;;;;;;;;-73
2023/03/21 23:10:39;;;;;;;;;;;;;;;8.34;100;100928.8;;;;-74
2023/03/21 23:15:31;;;;;;;;;;;;;;;8.36;100;100935.5;;;;-73
2023/03/21 23:20:31;;;;;;;;;;;;;;;8.36;100;100929.7;;;;-74
2023/03/21 23:25:33;;;;;;;;;;;;;;;8.36;100;100933.4;;;;-71
2023/03/21 23:30:31;;;;;;;;;;;;;;;8.34;100;100931.1;;;;-73
2023/03/21 23:35:34;;;;;;;;;;;;;;;8.34;100;100928.6;;;;-73
2023/03/21 23:40:25;;;;;;;6.4;1.2;;;;;;;;;;;;;-74
2023/03/21 23:40:44;;;;;;;;;;;;;;;8.33;100;100923.4;;;;-73
2023/03/21 23:45:31;;;;;;;;;;;;;;;8.37;100;100922.5;;;;-74
2023/03/21 23:50:31;;;;;;;;;;;;;;;8.36;100;100919.1;;;;-74
2023/03/21 23:55:36;;;;;;;;;;;;;;;8.34;100;100906.5;;;;-73
